CYQZ

Quesnel Airport

Quesnel, British Columbia, Canada
METAR CYQZ 240400Z AUTO VRB03KT 9SM -RA OVC050 10/05 A3003 RMK SLP190
Observed Flight Rules
Sep-24 @ 04:00 UTC (24 minutes ago) Visual Flight Rules
Wind Visibility Clouds Conditions
Variable at 3 knots 9 miles
  • Overcast at 5,000' AGL
  • Light Rain
Temperatures Readings
Current 10°C / 50°F
Dewpoint 5°C / 41°F
Humidity 71%
Altimeter 30.03" Hg
Pressure 1019 hPa
Elevation 545
METAR CYQZ 240400Z AUTO VRB03KT 9SM -RA OVC050 10/05 A3003 RMK SLP190
Observed Flight Rules
Sep-24 @ 04:00 UTC
(24 minutes ago)
VFR
Wind Visibility
Variable at 3 knots 9 miles
Clouds
  • Overcast at 5,000' AGL
Conditions
  • Light Rain
Temperature Dewpoint
10°C / 50°F 5°C / 41°F
Humidity Altimeter Pressure
71% 30.03" Hg 1019 hPa